Utrera, Spain
Current Conditions -  °F | °C
As of 10:00 AM on Monday 22 Dec 2014 (Local Time) from LEMO Reporting Station
Clear Clear  
Wind Chill: 45°   Ceiling: Unl
Heat Index: 45°   Visibility: 6mi
Dew Point: 43°   Wind: 1mph
Humidity: 93%   Direction: 330°NNW
Pressure: 30.36"   Gusts: NA
Location:  37.18°N, 5.78°W
Report Text: LEMO 220900Z 33001KT 9000 NSC 07/06 Q1028 NOSIG
Loading
Personal Weather Stations






























Interactive Weather Map New forecast layout! Learn more

10-Day Weather Forecast

Advertisements
Track Severe Weather on mobile